sensor_id;sensor_type;location;lat;lon;timestamp;P1;durP1;ratioP1;P2;durP2;ratioP2
26620;SDS011;14253;44.840;10.444;2023-07-31T00:00:46;6.72;;;3.25;;
26620;SDS011;14253;44.840;10.444;2023-07-31T00:03:12;5.95;;;3.33;;
26620;SDS011;14253;44.840;10.444;2023-07-31T00:05:38;6.10;;;3.33;;
26620;SDS011;14253;44.840;10.444;2023-07-31T00:08:04;5.40;;;3.22;;
26620;SDS011;14253;44.840;10.444;2023-07-31T00:10:30;6.55;;;3.00;;
26620;SDS011;14253;44.840;10.444;2023-07-31T00:12:56;4.78;;;3.00;;
26620;SDS011;14253;44.840;10.444;2023-07-31T00:15:22;5.60;;;2.95;;
26620;SDS011;14253;44.840;10.444;2023-07-31T00:17:48;7.80;;;3.42;;
26620;SDS011;14253;44.840;10.444;2023-07-31T00:20:14;5.13;;;3.78;;
26620;SDS011;14253;44.840;10.444;2023-07-31T00:22:40;5.28;;;3.33;;
26620;SDS011;14253;44.840;10.444;2023-07-31T00:25:06;5.95;;;3.65;;
26620;SDS011;14253;44.840;10.444;2023-07-31T00:27:32;4.95;;;3.47;;
26620;SDS011;14253;44.840;10.444;2023-07-31T00:29:58;6.72;;;3.42;;
26620;SDS011;14253;44.840;10.444;2023-07-31T00:32:24;4.43;;;3.28;;
26620;SDS011;14253;44.840;10.444;2023-07-31T00:34:50;7.53;;;3.60;;
26620;SDS011;14253;44.840;10.444;2023-07-31T00:37:16;5.70;;;3.28;;
26620;SDS011;14253;44.840;10.444;2023-07-31T00:39:42;4.85;;;3.20;;
26620;SDS011;14253;44.840;10.444;2023-07-31T00:42:23;6.93;;;3.40;;
26620;SDS011;14253;44.840;10.444;2023-07-31T00:45:07;5.93;;;3.28;;
26620;SDS011;14253;44.840;10.444;2023-07-31T00:47:58;6.17;;;3.10;;
26620;SDS011;14253;44.840;10.444;2023-07-31T00:50:46;10.50;;;3.85;;
26620;SDS011;14253;44.840;10.444;2023-07-31T00:53:38;5.53;;;3.80;;
26620;SDS011;14253;44.840;10.444;2023-07-31T00:56:19;9.95;;;3.42;;
26620;SDS011;14253;44.840;10.444;2023-07-31T00:58:46;9.40;;;3.78;;
26620;SDS011;14253;44.840;10.444;2023-07-31T01:01:13;5.78;;;3.60;;
26620;SDS011;14253;44.840;10.444;2023-07-31T01:03:39;6.45;;;3.13;;
26620;SDS011;14253;44.840;10.444;2023-07-31T01:08:54;5.38;;;3.17;;
26620;SDS011;14253;44.840;10.444;2023-07-31T01:11:38;7.55;;;3.47;;
26620;SDS011;14253;44.840;10.444;2023-07-31T01:14:13;7.68;;;3.60;;
26620;SDS011;14253;44.840;10.444;2023-07-31T01:16:39;5.13;;;3.00;;
26620;SDS011;14253;44.840;10.444;2023-07-31T01:19:05;4.90;;;2.95;;
26620;SDS011;14253;44.840;10.444;2023-07-31T01:24:36;7.22;;;3.45;;
26620;SDS011;14253;44.840;10.444;2023-07-31T01:27:12;4.55;;;3.90;;
26620;SDS011;14253;44.840;10.444;2023-07-31T01:30:24;6.85;;;4.00;;
26620;SDS011;14253;44.840;10.444;2023-07-31T01:32:40;10.60;;;4.47;;
26620;SDS011;14253;44.840;10.444;2023-07-31T01:35:08;7.78;;;4.72;;
26620;SDS011;14253;44.840;10.444;2023-07-31T01:37:34;6.93;;;4.75;;
26620;SDS011;14253;44.840;10.444;2023-07-31T01:40:01;6.88;;;3.92;;
26620;SDS011;14253;44.840;10.444;2023-07-31T01:42:26;5.20;;;4.50;;
26620;SDS011;14253;44.840;10.444;2023-07-31T01:44:52;7.40;;;5.05;;
26620;SDS011;14253;44.840;10.444;2023-07-31T01:47:18;6.25;;;4.82;;
26620;SDS011;14253;44.840;10.444;2023-07-31T01:49:44;6.32;;;4.38;;
26620;SDS011;14253;44.840;10.444;2023-07-31T01:52:10;7.30;;;4.78;;
26620;SDS011;14253;44.840;10.444;2023-07-31T01:54:36;9.10;;;5.50;;
26620;SDS011;14253;44.840;10.444;2023-07-31T01:57:02;7.72;;;4.88;;
26620;SDS011;14253;44.840;10.444;2023-07-31T01:59:28;7.05;;;5.60;;
26620;SDS011;14253;44.840;10.444;2023-07-31T02:01:54;8.30;;;6.43;;
26620;SDS011;14253;44.840;10.444;2023-07-31T02:04:21;8.95;;;6.50;;
26620;SDS011;14253;44.840;10.444;2023-07-31T02:06:47;10.75;;;6.22;;
26620;SDS011;14253;44.840;10.444;2023-07-31T02:09:13;7.53;;;6.00;;
26620;SDS011;14253;44.840;10.444;2023-07-31T02:11:39;7.25;;;6.45;;
26620;SDS011;14253;44.840;10.444;2023-07-31T02:14:05;9.90;;;6.45;;
26620;SDS011;14253;44.840;10.444;2023-07-31T02:16:31;6.68;;;5.50;;
26620;SDS011;14253;44.840;10.444;2023-07-31T02:18:57;9.95;;;6.35;;
26620;SDS011;14253;44.840;10.444;2023-07-31T02:21:25;7.88;;;6.03;;
26620;SDS011;14253;44.840;10.444;2023-07-31T02:23:51;7.40;;;5.60;;
26620;SDS011;14253;44.840;10.444;2023-07-31T02:26:18;7.13;;;5.25;;
26620;SDS011;14253;44.840;10.444;2023-07-31T02:28:44;6.53;;;5.57;;
26620;SDS011;14253;44.840;10.444;2023-07-31T02:31:10;10.43;;;6.03;;
26620;SDS011;14253;44.840;10.444;2023-07-31T02:33:36;8.85;;;5.85;;
26620;SDS011;14253;44.840;10.444;2023-07-31T02:36:02;6.20;;;5.47;;
26620;SDS011;14253;44.840;10.444;2023-07-31T02:38:28;9.13;;;6.57;;
26620;SDS011;14253;44.840;10.444;2023-07-31T02:40:54;9.85;;;5.97;;
26620;SDS011;14253;44.840;10.444;2023-07-31T02:43:20;7.70;;;6.57;;
26620;SDS011;14253;44.840;10.444;2023-07-31T02:45:50;6.65;;;6.05;;
26620;SDS011;14253;44.840;10.444;2023-07-31T02:48:19;8.55;;;6.15;;
26620;SDS011;14253;44.840;10.444;2023-07-31T02:50:47;6.20;;;5.50;;
26620;SDS011;14253;44.840;10.444;2023-07-31T02:53:13;12.65;;;6.90;;
26620;SDS011;14253;44.840;10.444;2023-07-31T02:55:39;9.63;;;6.60;;
26620;SDS011;14253;44.840;10.444;2023-07-31T02:58:06;6.95;;;6.25;;
26620;SDS011;14253;44.840;10.444;2023-07-31T03:00:32;8.52;;;7.15;;
26620;SDS011;14253;44.840;10.444;2023-07-31T03:02:58;11.43;;;6.72;;
26620;SDS011;14253;44.840;10.444;2023-07-31T03:05:24;8.60;;;6.43;;
26620;SDS011;14253;44.840;10.444;2023-07-31T03:07:50;7.40;;;5.80;;
26620;SDS011;14253;44.840;10.444;2023-07-31T03:10:16;12.45;;;7.55;;
26620;SDS011;14253;44.840;10.444;2023-07-31T03:12:41;10.88;;;6.93;;
26620;SDS011;14253;44.840;10.444;2023-07-31T03:15:08;10.43;;;6.78;;
26620;SDS011;14253;44.840;10.444;2023-07-31T03:17:34;9.35;;;7.10;;
26620;SDS011;14253;44.840;10.444;2023-07-31T03:20:00;10.00;;;6.78;;
26620;SDS011;14253;44.840;10.444;2023-07-31T03:22:26;9.50;;;6.72;;
26620;SDS011;14253;44.840;10.444;2023-07-31T03:24:52;9.02;;;6.18;;
26620;SDS011;14253;44.840;10.444;2023-07-31T03:27:18;8.48;;;7.22;;
26620;SDS011;14253;44.840;10.444;2023-07-31T03:29:44;8.40;;;7.25;;
26620;SDS011;14253;44.840;10.444;2023-07-31T03:32:10;11.63;;;7.03;;
26620;SDS011;14253;44.840;10.444;2023-07-31T03:34:36;8.35;;;7.55;;
26620;SDS011;14253;44.840;10.444;2023-07-31T03:37:05;7.82;;;7.00;;
26620;SDS011;14253;44.840;10.444;2023-07-31T03:39:31;8.57;;;6.75;;
26620;SDS011;14253;44.840;10.444;2023-07-31T03:41:57;9.07;;;7.32;;
26620;SDS011;14253;44.840;10.444;2023-07-31T03:44:22;8.20;;;7.25;;
26620;SDS011;14253;44.840;10.444;2023-07-31T03:46:48;9.63;;;7.43;;
26620;SDS011;14253;44.840;10.444;2023-07-31T03:49:14;12.52;;;7.97;;
26620;SDS011;14253;44.840;10.444;2023-07-31T03:51:40;10.43;;;7.38;;
26620;SDS011;14253;44.840;10.444;2023-07-31T03:54:07;9.23;;;7.53;;
26620;SDS011;14253;44.840;10.444;2023-07-31T03:56:33;9.07;;;7.82;;
26620;SDS011;14253;44.840;10.444;2023-07-31T03:58:59;8.57;;;7.35;;
26620;SDS011;14253;44.840;10.444;2023-07-31T04:01:25;8.23;;;7.38;;
26620;SDS011;14253;44.840;10.444;2023-07-31T04:03:52;10.52;;;7.97;;
26620;SDS011;14253;44.840;10.444;2023-07-31T04:06:18;9.27;;;7.88;;
26620;SDS011;14253;44.840;10.444;2023-07-31T04:08:44;10.13;;;7.80;;
26620;SDS011;14253;44.840;10.444;2023-07-31T04:11:13;15.95;;;9.05;;
26620;SDS011;14253;44.840;10.444;2023-07-31T04:13:39;9.07;;;7.80;;
26620;SDS011;14253;44.840;10.444;2023-07-31T04:16:05;11.50;;;7.75;;
26620;SDS011;14253;44.840;10.444;2023-07-31T04:18:30;10.45;;;8.63;;
26620;SDS011;14253;44.840;10.444;2023-07-31T04:20:57;12.40;;;8.88;;
26620;SDS011;14253;44.840;10.444;2023-07-31T04:23:24;11.95;;;8.75;;
26620;SDS011;14253;44.840;10.444;2023-07-31T04:25:50;11.00;;;9.05;;
26620;SDS011;14253;44.840;10.444;2023-07-31T04:28:16;9.35;;;8.18;;
26620;SDS011;14253;44.840;10.444;2023-07-31T04:30:42;12.23;;;9.23;;
26620;SDS011;14253;44.840;10.444;2023-07-31T04:33:08;11.23;;;8.18;;
26620;SDS011;14253;44.840;10.444;2023-07-31T04:35:34;15.00;;;10.30;;
26620;SDS011;14253;44.840;10.444;2023-07-31T04:38:00;13.85;;;9.15;;
26620;SDS011;14253;44.840;10.444;2023-07-31T04:40:26;13.18;;;8.63;;
26620;SDS011;14253;44.840;10.444;2023-07-31T04:42:52;18.00;;;10.13;;
26620;SDS011;14253;44.840;10.444;2023-07-31T04:45:18;14.85;;;9.25;;
26620;SDS011;14253;44.840;10.444;2023-07-31T04:47:44;23.38;;;10.52;;
26620;SDS011;14253;44.840;10.444;2023-07-31T04:50:10;19.73;;;9.50;;
26620;SDS011;14253;44.840;10.444;2023-07-31T04:52:36;12.13;;;9.20;;
26620;SDS011;14253;44.840;10.444;2023-07-31T04:55:02;16.75;;;9.30;;
26620;SDS011;14253;44.840;10.444;2023-07-31T04:57:28;19.75;;;12.13;;
26620;SDS011;14253;44.840;10.444;2023-07-31T04:59:54;13.15;;;10.57;;
26620;SDS011;14253;44.840;10.444;2023-07-31T05:02:20;15.27;;;9.88;;
26620;SDS011;14253;44.840;10.444;2023-07-31T05:04:46;16.13;;;11.45;;
26620;SDS011;14253;44.840;10.444;2023-07-31T05:07:12;11.13;;;8.77;;
26620;SDS011;14253;44.840;10.444;2023-07-31T05:09:38;11.25;;;10.10;;
26620;SDS011;14253;44.840;10.444;2023-07-31T05:12:04;13.13;;;9.85;;
26620;SDS011;14253;44.840;10.444;2023-07-31T05:14:31;14.32;;;10.70;;
26620;SDS011;14253;44.840;10.444;2023-07-31T05:16:57;13.60;;;10.27;;
26620;SDS011;14253;44.840;10.444;2023-07-31T05:19:23;15.40;;;11.45;;
26620;SDS011;14253;44.840;10.444;2023-07-31T05:21:49;12.23;;;10.32;;
26620;SDS011;14253;44.840;10.444;2023-07-31T05:24:14;13.85;;;9.52;;
26620;SDS011;14253;44.840;10.444;2023-07-31T05:26:40;10.85;;;8.95;;
26620;SDS011;14253;44.840;10.444;2023-07-31T05:29:06;13.63;;;9.32;;
26620;SDS011;14253;44.840;10.444;2023-07-31T05:31:32;12.00;;;9.95;;
26620;SDS011;14253;44.840;10.444;2023-07-31T05:33:58;12.18;;;10.48;;
26620;SDS011;14253;44.840;10.444;2023-07-31T05:36:24;11.63;;;9.07;;
26620;SDS011;14253;44.840;10.444;2023-07-31T05:38:50;12.70;;;9.50;;
26620;SDS011;14253;44.840;10.444;2023-07-31T05:41:19;15.63;;;11.10;;
26620;SDS011;14253;44.840;10.444;2023-07-31T05:43:45;17.38;;;11.20;;
26620;SDS011;14253;44.840;10.444;2023-07-31T05:46:11;13.15;;;10.65;;
26620;SDS011;14253;44.840;10.444;2023-07-31T05:48:37;14.70;;;11.02;;
26620;SDS011;14253;44.840;10.444;2023-07-31T05:51:03;17.90;;;10.95;;
26620;SDS011;14253;44.840;10.444;2023-07-31T05:53:29;14.45;;;9.75;;
26620;SDS011;14253;44.840;10.444;2023-07-31T05:55:55;13.57;;;9.57;;
26620;SDS011;14253;44.840;10.444;2023-07-31T05:58:21;15.65;;;8.98;;
26620;SDS011;14253;44.840;10.444;2023-07-31T06:00:47;17.25;;;9.73;;
26620;SDS011;14253;44.840;10.444;2023-07-31T06:03:13;13.77;;;7.40;;
26620;SDS011;14253;44.840;10.444;2023-07-31T06:05:39;10.50;;;7.65;;
26620;SDS011;14253;44.840;10.444;2023-07-31T06:08:05;12.30;;;8.30;;
26620;SDS011;14253;44.840;10.444;2023-07-31T06:10:31;9.07;;;8.07;;
26620;SDS011;14253;44.840;10.444;2023-07-31T06:12:57;14.65;;;8.10;;
26620;SDS011;14253;44.840;10.444;2023-07-31T06:15:23;10.18;;;6.85;;
26620;SDS011;14253;44.840;10.444;2023-07-31T06:17:49;10.75;;;8.23;;
26620;SDS011;14253;44.840;10.444;2023-07-31T06:20:15;8.55;;;7.18;;
26620;SDS011;14253;44.840;10.444;2023-07-31T06:22:41;8.55;;;7.72;;
26620;SDS011;14253;44.840;10.444;2023-07-31T06:25:07;10.95;;;7.05;;
26620;SDS011;14253;44.840;10.444;2023-07-31T06:27:34;11.68;;;7.30;;
26620;SDS011;14253;44.840;10.444;2023-07-31T06:30:00;14.27;;;6.22;;
26620;SDS011;14253;44.840;10.444;2023-07-31T06:32:26;9.30;;;6.28;;
26620;SDS011;14253;44.840;10.444;2023-07-31T06:34:51;14.07;;;6.25;;
26620;SDS011;14253;44.840;10.444;2023-07-31T06:37:19;9.32;;;5.60;;
26620;SDS011;14253;44.840;10.444;2023-07-31T06:39:45;8.48;;;4.90;;
26620;SDS011;14253;44.840;10.444;2023-07-31T06:42:11;5.88;;;5.28;;
26620;SDS011;14253;44.840;10.444;2023-07-31T06:44:37;7.47;;;5.70;;
26620;SDS011;14253;44.840;10.444;2023-07-31T06:47:02;11.73;;;5.47;;
26620;SDS011;14253;44.840;10.444;2023-07-31T06:49:29;9.15;;;4.28;;
26620;SDS011;14253;44.840;10.444;2023-07-31T06:51:54;12.60;;;5.63;;
26620;SDS011;14253;44.840;10.444;2023-07-31T06:54:20;9.23;;;5.35;;
26620;SDS011;14253;44.840;10.444;2023-07-31T06:56:46;9.93;;;5.68;;
26620;SDS011;14253;44.840;10.444;2023-07-31T06:59:12;7.82;;;4.45;;
26620;SDS011;14253;44.840;10.444;2023-07-31T07:01:38;6.53;;;4.50;;
26620;SDS011;14253;44.840;10.444;2023-07-31T07:04:04;7.53;;;4.38;;
26620;SDS011;14253;44.840;10.444;2023-07-31T07:06:30;6.95;;;4.32;;
26620;SDS011;14253;44.840;10.444;2023-07-31T07:08:56;6.75;;;3.95;;
26620;SDS011;14253;44.840;10.444;2023-07-31T07:11:22;6.28;;;4.45;;
26620;SDS011;14253;44.840;10.444;2023-07-31T07:13:48;5.07;;;3.33;;
26620;SDS011;14253;44.840;10.444;2023-07-31T07:16:14;6.35;;;3.10;;
26620;SDS011;14253;44.840;10.444;2023-07-31T07:18:40;6.13;;;3.08;;
26620;SDS011;14253;44.840;10.444;2023-07-31T07:21:06;6.78;;;3.15;;
26620;SDS011;14253;44.840;10.444;2023-07-31T07:23:32;6.25;;;3.20;;
26620;SDS011;14253;44.840;10.444;2023-07-31T07:25:58;8.48;;;3.47;;
26620;SDS011;14253;44.840;10.444;2023-07-31T07:28:24;6.68;;;3.15;;
26620;SDS011;14253;44.840;10.444;2023-07-31T07:30:53;5.70;;;2.90;;
26620;SDS011;14253;44.840;10.444;2023-07-31T07:33:19;5.57;;;3.17;;
26620;SDS011;14253;44.840;10.444;2023-07-31T07:35:45;4.90;;;2.70;;
26620;SDS011;14253;44.840;10.444;2023-07-31T07:38:11;3.72;;;2.55;;
26620;SDS011;14253;44.840;10.444;2023-07-31T07:40:39;5.53;;;2.47;;
26620;SDS011;14253;44.840;10.444;2023-07-31T07:43:05;3.00;;;2.15;;
26620;SDS011;14253;44.840;10.444;2023-07-31T07:45:31;4.97;;;2.40;;
26620;SDS011;14253;44.840;10.444;2023-07-31T07:47:57;6.60;;;2.65;;
26620;SDS011;14253;44.840;10.444;2023-07-31T07:50:24;4.50;;;2.35;;
26620;SDS011;14253;44.840;10.444;2023-07-31T07:52:50;3.47;;;2.85;;
26620;SDS011;14253;44.840;10.444;2023-07-31T07:55:16;4.30;;;2.63;;
26620;SDS011;14253;44.840;10.444;2023-07-31T07:57:42;5.57;;;2.95;;
26620;SDS011;14253;44.840;10.444;2023-07-31T08:00:10;3.53;;;2.70;;
26620;SDS011;14253;44.840;10.444;2023-07-31T08:02:41;3.05;;;2.08;;
26620;SDS011;14253;44.840;10.444;2023-07-31T08:05:07;3.17;;;2.42;;
26620;SDS011;14253;44.840;10.444;2023-07-31T08:07:34;6.25;;;2.22;;
26620;SDS011;14253;44.840;10.444;2023-07-31T08:10:00;3.92;;;2.53;;
26620;SDS011;14253;44.840;10.444;2023-07-31T08:12:26;2.72;;;2.08;;
26620;SDS011;14253;44.840;10.444;2023-07-31T08:14:52;6.13;;;2.60;;
26620;SDS011;14253;44.840;10.444;2023-07-31T08:17:18;5.93;;;2.50;;
26620;SDS011;14253;44.840;10.444;2023-07-31T08:19:44;3.30;;;2.42;;
26620;SDS011;14253;44.840;10.444;2023-07-31T08:22:11;6.97;;;2.17;;
26620;SDS011;14253;44.840;10.444;2023-07-31T08:24:37;5.13;;;3.17;;
26620;SDS011;14253;44.840;10.444;2023-07-31T08:27:03;4.63;;;2.33;;
26620;SDS011;14253;44.840;10.444;2023-07-31T08:29:31;5.55;;;2.90;;
26620;SDS011;14253;44.840;10.444;2023-07-31T08:31:56;5.95;;;2.92;;
26620;SDS011;14253;44.840;10.444;2023-07-31T08:34:22;6.55;;;3.25;;
26620;SDS011;14253;44.840;10.444;2023-07-31T08:36:48;5.45;;;2.80;;
26620;SDS011;14253;44.840;10.444;2023-07-31T08:39:14;5.15;;;2.78;;
26620;SDS011;14253;44.840;10.444;2023-07-31T08:41:40;3.83;;;1.63;;
26620;SDS011;14253;44.840;10.444;2023-07-31T08:44:09;8.35;;;2.15;;
26620;SDS011;14253;44.840;10.444;2023-07-31T08:46:37;8.23;;;1.92;;
26620;SDS011;14253;44.840;10.444;2023-07-31T08:49:05;3.47;;;1.48;;
26620;SDS011;14253;44.840;10.444;2023-07-31T08:51:33;3.15;;;1.85;;
26620;SDS011;14253;44.840;10.444;2023-07-31T08:54:00;3.83;;;1.92;;
26620;SDS011;14253;44.840;10.444;2023-07-31T08:56:26;3.88;;;1.60;;
26620;SDS011;14253;44.840;10.444;2023-07-31T08:58:53;5.22;;;1.95;;
26620;SDS011;14253;44.840;10.444;2023-07-31T09:01:20;3.97;;;2.15;;
26620;SDS011;14253;44.840;10.444;2023-07-31T09:03:47;5.32;;;1.85;;
26620;SDS011;14253;44.840;10.444;2023-07-31T09:06:14;1.75;;;1.50;;
26620;SDS011;14253;44.840;10.444;2023-07-31T09:08:43;3.25;;;2.05;;
26620;SDS011;14253;44.840;10.444;2023-07-31T09:11:09;2.90;;;1.70;;
26620;SDS011;14253;44.840;10.444;2023-07-31T09:13:36;3.60;;;2.13;;
26620;SDS011;14253;44.840;10.444;2023-07-31T09:16:05;3.08;;;2.10;;
26620;SDS011;14253;44.840;10.444;2023-07-31T09:18:31;4.32;;;1.95;;
26620;SDS011;14253;44.840;10.444;2023-07-31T09:21:03;5.90;;;1.88;;
26620;SDS011;14253;44.840;10.444;2023-07-31T09:23:40;4.82;;;1.90;;
26620;SDS011;14253;44.840;10.444;2023-07-31T09:26:29;4.13;;;2.33;;
26620;SDS011;14253;44.840;10.444;2023-07-31T09:29:00;2.88;;;1.88;;
26620;SDS011;14253;44.840;10.444;2023-07-31T09:31:47;4.68;;;2.60;;
26620;SDS011;14253;44.840;10.444;2023-07-31T09:34:12;5.00;;;2.92;;
26620;SDS011;14253;44.840;10.444;2023-07-31T09:36:42;5.40;;;3.05;;
26620;SDS011;14253;44.840;10.444;2023-07-31T09:39:10;4.82;;;2.00;;
26620;SDS011;14253;44.840;10.444;2023-07-31T09:41:37;3.72;;;1.77;;
26620;SDS011;14253;44.840;10.444;2023-07-31T09:44:05;3.38;;;2.00;;
26620;SDS011;14253;44.840;10.444;2023-07-31T09:46:31;4.18;;;1.90;;
26620;SDS011;14253;44.840;10.444;2023-07-31T09:49:09;6.80;;;1.63;;
26620;SDS011;14253;44.840;10.444;2023-07-31T09:51:37;4.25;;;1.77;;
26620;SDS011;14253;44.840;10.444;2023-07-31T09:56:55;3.40;;;1.70;;
26620;SDS011;14253;44.840;10.444;2023-07-31T09:59:23;11.27;;;2.42;;
26620;SDS011;14253;44.840;10.444;2023-07-31T10:01:50;3.50;;;1.42;;
26620;SDS011;14253;44.840;10.444;2023-07-31T10:04:17;3.60;;;1.65;;
26620;SDS011;14253;44.840;10.444;2023-07-31T10:06:48;3.53;;;1.50;;
26620;SDS011;14253;44.840;10.444;2023-07-31T10:09:17;3.40;;;1.88;;
26620;SDS011;14253;44.840;10.444;2023-07-31T10:11:49;2.75;;;1.40;;
26620;SDS011;14253;44.840;10.444;2023-07-31T10:14:21;4.93;;;1.38;;
26620;SDS011;14253;44.840;10.444;2023-07-31T10:16:49;2.20;;;1.38;;
26620;SDS011;14253;44.840;10.444;2023-07-31T10:19:16;2.38;;;1.20;;
26620;SDS011;14253;44.840;10.444;2023-07-31T10:21:43;2.10;;;1.30;;
26620;SDS011;14253;44.840;10.444;2023-07-31T10:24:09;4.07;;;1.45;;
26620;SDS011;14253;44.840;10.444;2023-07-31T10:26:37;4.20;;;1.63;;
26620;SDS011;14253;44.840;10.444;2023-07-31T10:29:05;3.67;;;1.33;;
26620;SDS011;14253;44.840;10.444;2023-07-31T10:31:31;5.55;;;1.55;;
26620;SDS011;14253;44.840;10.444;2023-07-31T10:33:59;2.60;;;1.50;;
26620;SDS011;14253;44.840;10.444;2023-07-31T10:36:26;4.97;;;1.30;;
26620;SDS011;14253;44.840;10.444;2023-07-31T10:38:52;3.20;;;1.40;;
26620;SDS011;14253;44.840;10.444;2023-07-31T10:41:27;3.17;;;1.60;;
26620;SDS011;14253;44.840;10.444;2023-07-31T10:44:01;3.63;;;1.20;;
26620;SDS011;14253;44.840;10.444;2023-07-31T10:46:29;2.03;;;1.30;;
26620;SDS011;14253;44.840;10.444;2023-07-31T10:48:58;5.30;;;1.38;;
26620;SDS011;14253;44.840;10.444;2023-07-31T10:51:34;3.05;;;1.55;;
26620;SDS011;14253;44.840;10.444;2023-07-31T10:54:12;4.55;;;2.00;;
26620;SDS011;14253;44.840;10.444;2023-07-31T10:56:39;2.97;;;2.00;;
26620;SDS011;14253;44.840;10.444;2023-07-31T10:59:05;3.38;;;1.77;;
26620;SDS011;14253;44.840;10.444;2023-07-31T11:01:51;4.00;;;1.40;;
26620;SDS011;14253;44.840;10.444;2023-07-31T11:04:27;1.90;;;1.35;;
26620;SDS011;14253;44.840;10.444;2023-07-31T11:07:00;2.42;;;1.70;;
26620;SDS011;14253;44.840;10.444;2023-07-31T11:09:31;3.10;;;1.73;;
26620;SDS011;14253;44.840;10.444;2023-07-31T11:11:58;4.10;;;1.42;;
26620;SDS011;14253;44.840;10.444;2023-07-31T11:14:25;4.43;;;1.40;;
26620;SDS011;14253;44.840;10.444;2023-07-31T11:16:51;5.38;;;2.15;;
26620;SDS011;14253;44.840;10.444;2023-07-31T11:19:24;3.10;;;1.60;;
26620;SDS011;14253;44.840;10.444;2023-07-31T11:21:53;4.57;;;1.63;;
26620;SDS011;14253;44.840;10.444;2023-07-31T11:24:19;5.45;;;1.73;;
26620;SDS011;14253;44.840;10.444;2023-07-31T11:26:49;3.83;;;1.75;;
26620;SDS011;14253;44.840;10.444;2023-07-31T11:29:16;2.15;;;1.60;;
26620;SDS011;14253;44.840;10.444;2023-07-31T11:31:43;5.53;;;1.60;;
26620;SDS011;14253;44.840;10.444;2023-07-31T11:34:09;2.88;;;1.10;;
26620;SDS011;14253;44.840;10.444;2023-07-31T11:36:36;2.28;;;1.45;;
26620;SDS011;14253;44.840;10.444;2023-07-31T11:39:05;1.63;;;1.35;;
26620;SDS011;14253;44.840;10.444;2023-07-31T11:41:35;2.70;;;1.60;;
26620;SDS011;14253;44.840;10.444;2023-07-31T11:44:01;2.60;;;1.40;;
26620;SDS011;14253;44.840;10.444;2023-07-31T11:46:30;5.47;;;1.60;;
26620;SDS011;14253;44.840;10.444;2023-07-31T11:49:00;5.32;;;2.03;;
26620;SDS011;14253;44.840;10.444;2023-07-31T11:51:26;3.75;;;1.63;;
26620;SDS011;14253;44.840;10.444;2023-07-31T11:53:56;4.22;;;1.60;;
26620;SDS011;14253;44.840;10.444;2023-07-31T11:56:25;4.55;;;1.63;;
26620;SDS011;14253;44.840;10.444;2023-07-31T11:58:53;6.97;;;1.27;;
26620;SDS011;14253;44.840;10.444;2023-07-31T12:01:24;3.53;;;1.40;;
26620;SDS011;14253;44.840;10.444;2023-07-31T12:03:52;2.53;;;1.50;;
26620;SDS011;14253;44.840;10.444;2023-07-31T12:06:19;2.95;;;1.60;;
26620;SDS011;14253;44.840;10.444;2023-07-31T12:08:46;3.90;;;1.42;;
26620;SDS011;14253;44.840;10.444;2023-07-31T12:11:12;2.42;;;1.55;;
26620;SDS011;14253;44.840;10.444;2023-07-31T12:13:43;3.97;;;1.50;;
26620;SDS011;14253;44.840;10.444;2023-07-31T12:16:09;1.92;;;1.50;;
26620;SDS011;14253;44.840;10.444;2023-07-31T12:18:38;3.30;;;1.55;;
26620;SDS011;14253;44.840;10.444;2023-07-31T12:21:05;2.05;;;1.40;;
26620;SDS011;14253;44.840;10.444;2023-07-31T12:23:33;3.47;;;1.25;;
26620;SDS011;14253;44.840;10.444;2023-07-31T12:26:08;5.10;;;1.75;;
26620;SDS011;14253;44.840;10.444;2023-07-31T12:28:40;2.05;;;1.55;;
26620;SDS011;14253;44.840;10.444;2023-07-31T12:31:12;3.05;;;1.75;;
26620;SDS011;14253;44.840;10.444;2023-07-31T12:33:46;5.20;;;1.67;;
26620;SDS011;14253;44.840;10.444;2023-07-31T12:36:16;2.85;;;1.63;;
26620;SDS011;14253;44.840;10.444;2023-07-31T12:38:43;4.55;;;1.63;;
26620;SDS011;14253;44.840;10.444;2023-07-31T12:41:10;6.28;;;1.52;;
26620;SDS011;14253;44.840;10.444;2023-07-31T12:43:37;3.22;;;1.73;;
26620;SDS011;14253;44.840;10.444;2023-07-31T12:46:04;4.70;;;1.80;;
26620;SDS011;14253;44.840;10.444;2023-07-31T12:48:31;4.15;;;1.70;;
26620;SDS011;14253;44.840;10.444;2023-07-31T12:50:57;3.65;;;1.52;;
26620;SDS011;14253;44.840;10.444;2023-07-31T12:53:23;2.47;;;1.80;;
26620;SDS011;14253;44.840;10.444;2023-07-31T12:55:52;2.17;;;1.88;;
26620;SDS011;14253;44.840;10.444;2023-07-31T12:58:21;4.50;;;1.80;;
26620;SDS011;14253;44.840;10.444;2023-07-31T13:00:47;2.63;;;1.50;;
26620;SDS011;14253;44.840;10.444;2023-07-31T13:03:13;4.53;;;1.58;;
26620;SDS011;14253;44.840;10.444;2023-07-31T13:05:39;3.00;;;1.60;;
26620;SDS011;14253;44.840;10.444;2023-07-31T13:08:05;1.70;;;1.30;;
26620;SDS011;14253;44.840;10.444;2023-07-31T13:10:31;2.28;;;1.65;;
26620;SDS011;14253;44.840;10.444;2023-07-31T13:12:57;3.78;;;1.80;;
26620;SDS011;14253;44.840;10.444;2023-07-31T13:15:23;2.70;;;1.55;;
26620;SDS011;14253;44.840;10.444;2023-07-31T13:17:49;2.45;;;1.70;;
26620;SDS011;14253;44.840;10.444;2023-07-31T13:20:15;6.28;;;2.08;;
26620;SDS011;14253;44.840;10.444;2023-07-31T13:22:41;5.00;;;1.50;;
26620;SDS011;14253;44.840;10.444;2023-07-31T13:25:07;4.15;;;1.73;;
26620;SDS011;14253;44.840;10.444;2023-07-31T13:27:34;3.53;;;2.03;;
26620;SDS011;14253;44.840;10.444;2023-07-31T13:30:00;7.65;;;1.63;;
26620;SDS011;14253;44.840;10.444;2023-07-31T13:32:26;2.92;;;1.73;;
26620;SDS011;14253;44.840;10.444;2023-07-31T13:34:52;5.35;;;1.85;;
26620;SDS011;14253;44.840;10.444;2023-07-31T13:37:18;2.03;;;1.40;;
26620;SDS011;14253;44.840;10.444;2023-07-31T13:39:44;5.60;;;2.22;;
26620;SDS011;14253;44.840;10.444;2023-07-31T13:42:10;4.03;;;1.80;;
26620;SDS011;14253;44.840;10.444;2023-07-31T13:44:37;3.17;;;1.70;;
26620;SDS011;14253;44.840;10.444;2023-07-31T13:47:04;3.72;;;1.60;;
26620;SDS011;14253;44.840;10.444;2023-07-31T13:49:30;4.03;;;1.90;;
26620;SDS011;14253;44.840;10.444;2023-07-31T13:51:58;3.10;;;1.70;;
26620;SDS011;14253;44.840;10.444;2023-07-31T13:54:24;3.88;;;1.98;;
26620;SDS011;14253;44.840;10.444;2023-07-31T13:56:51;5.45;;;1.75;;
26620;SDS011;14253;44.840;10.444;2023-07-31T13:59:17;2.70;;;1.70;;
26620;SDS011;14253;44.840;10.444;2023-07-31T14:01:44;4.68;;;1.85;;
26620;SDS011;14253;44.840;10.444;2023-07-31T14:04:10;4.10;;;1.55;;
26620;SDS011;14253;44.840;10.444;2023-07-31T14:06:36;4.43;;;1.77;;
26620;SDS011;14253;44.840;10.444;2023-07-31T14:09:02;3.47;;;1.80;;
26620;SDS011;14253;44.840;10.444;2023-07-31T14:11:30;3.30;;;1.73;;
26620;SDS011;14253;44.840;10.444;2023-07-31T14:13:56;4.50;;;1.85;;
26620;SDS011;14253;44.840;10.444;2023-07-31T14:16:22;2.33;;;1.42;;
26620;SDS011;14253;44.840;10.444;2023-07-31T14:18:49;4.22;;;1.42;;
26620;SDS011;14253;44.840;10.444;2023-07-31T14:21:15;3.20;;;1.90;;
26620;SDS011;14253;44.840;10.444;2023-07-31T14:23:41;2.05;;;1.52;;
26620;SDS011;14253;44.840;10.444;2023-07-31T14:26:07;3.88;;;1.90;;
26620;SDS011;14253;44.840;10.444;2023-07-31T14:28:33;2.75;;;1.58;;
26620;SDS011;14253;44.840;10.444;2023-07-31T14:30:59;3.28;;;1.63;;
26620;SDS011;14253;44.840;10.444;2023-07-31T14:33:25;8.75;;;1.90;;
26620;SDS011;14253;44.840;10.444;2023-07-31T14:35:51;3.28;;;1.55;;
26620;SDS011;14253;44.840;10.444;2023-07-31T14:38:17;2.20;;;1.80;;
26620;SDS011;14253;44.840;10.444;2023-07-31T14:40:43;7.28;;;1.60;;